Time;durP1;ratioP1;P1;durP2;ratioP2;P2;SDS_P1;SDS_P2;PMS_P1;PMS_P2;Temp;Humidity;BMP_temperature;BMP_pressure;BME280_temperature;BME280_humidity;BME280_pressure;Samples;Min_cycle;Max_cycle;Signal;HPM_P1;HPM_P2
2022/08/29 01:54:13;;;;;;;5.45;5.03;;;13.90;99.90;;;;;;4880623;29;20053;-91
2022/08/29 01:56:47;;;;;;;14.15;5.38;;;13.90;99.90;;;;;;4864472;29;20053;-92
2022/08/29 01:59:19;;;;;;;9.00;5.78;;;13.80;99.90;;;;;;4865266;29;20491;-91
2022/08/29 02:01:59;;;;;;;37.55;14.52;;;13.90;99.90;;;;;;4850470;29;20075;-91
2022/08/29 02:04:34;;;;;;;9.55;6.43;;;13.90;99.90;;;;;;4852234;29;20384;-92
2022/08/29 02:07:41;;;;;;;63.13;15.27;;;13.90;99.90;;;;;;4868539;29;20053;-91
2022/08/29 02:11:13;;;;;;;;;;;;;;;;;;;;;
2022/08/29 02:14:35;;;;;;;;;;;;;;;;;;;;;
2022/08/29 02:18:59;;;;;;;79.15;25.92;;;13.40;99.90;;;;;;4848938;29;20060;-93
2022/08/29 02:22:34;;;;;;;;;;;;;;;;;;;;;
2022/08/29 02:25:46;;;;;;;4.88;4.40;;;13.50;99.90;;;;;;4832909;29;20496;-92
2022/08/29 02:28:35;;;;;;;6.88;5.38;;;13.50;99.90;;;;;;4813011;29;20050;-93
2022/08/29 02:31:15;;;;;;;57.15;11.07;;;13.50;99.90;;;;;;4813250;29;20133;-93
2022/08/29 02:34:00;;;;;;;25.45;6.43;;;13.50;99.90;;;;;;4807372;29;20053;-92
2022/08/29 02:37:04;;;;;;;12.73;5.38;;;13.60;99.90;;;;;;4824125;29;20042;-93
2022/08/29 02:50:04;;;;;;;14.52;5.90;;;13.10;99.90;;;;;;4840948;29;20151;-93
2022/08/29 02:53:39;;;;;;;5.40;4.90;;;13.10;99.90;;;;;;4851388;29;20072;-92
2022/08/29 02:56:21;;;;;;;5.38;4.88;;;13.20;99.90;;;;;;4849826;29;20756;-90
2022/08/29 02:58:49;;;;;;;4.50;3.97;;;13.30;99.90;;;;;;4846538;29;20057;-90
2022/08/29 03:01:19;;;;;;;4.90;3.92;;;13.40;99.90;;;;;;4861638;29;20072;-90
2022/08/29 03:03:49;;;;;;;4.68;3.58;;;13.30;99.90;;;;;;4861500;29;20041;-89
2022/08/29 03:06:18;;;;;;;4.70;3.50;;;13.20;99.90;;;;;;4862667;29;20057;-89
2022/08/29 03:08:46;;;;;;;31.33;8.48;;;13.20;99.90;;;;;;4845894;29;20053;-89
2022/08/29 03:11:14;;;;;;;4.05;3.17;;;13.20;99.90;;;;;;4878999;29;20419;-89
2022/08/29 03:13:44;;;;;;;7.55;5.05;;;13.20;99.90;;;;;;4847636;29;20048;-89
2022/08/29 03:16:12;;;;;;;8.18;5.40;;;13.20;99.90;;;;;;4865348;29;20655;-89
2022/08/29 03:18:41;;;;;;;11.95;4.50;;;13.20;99.90;;;;;;4861459;29;20065;-89
2022/08/29 03:21:20;;;;;;;21.40;6.75;;;13.20;99.90;;;;;;4831121;29;20053;-90
2022/08/29 03:23:50;;;;;;;10.02;4.95;;;13.20;99.90;;;;;;4846075;29;20045;-90
2022/08/29 03:26:19;;;;;;;5.03;3.85;;;13.10;99.90;;;;;;4831565;29;20046;-91
2022/08/29 03:28:47;;;;;;;3.95;3.55;;;13.00;99.90;;;;;;4846241;29;20037;-89
2022/08/29 03:31:15;;;;;;;8.43;3.35;;;13.00;99.90;;;;;;4846742;29;20400;-90
2022/08/29 03:33:43;;;;;;;8.40;3.38;;;13.00;99.90;;;;;;4846247;29;20052;-89
2022/08/29 03:36:11;;;;;;;3.35;3.05;;;13.00;99.90;;;;;;4846402;29;20049;-89
2022/08/29 03:38:53;;;;;;;12.53;6.03;;;12.90;99.90;;;;;;4845770;29;20060;-90
2022/08/29 03:41:23;;;;;;;9.65;4.70;;;12.90;99.90;;;;;;4831564;29;20605;-92
2022/08/29 03:43:59;;;;;;;5.80;3.08;;;12.80;99.90;;;;;;4860966;29;20046;-90
2022/08/29 03:46:27;;;;;;;3.65;3.35;;;12.80;99.90;;;;;;4831090;29;20057;-91
2022/08/29 03:48:55;;;;;;;4.18;3.50;;;12.90;99.90;;;;;;4845124;29;20046;-92
2022/08/29 03:51:23;;;;;;;5.07;3.03;;;12.80;99.90;;;;;;4845950;29;20051;-90
2022/08/29 03:53:56;;;;;;;4.30;3.75;;;12.90;99.90;;;;;;4846304;29;20054;-91
2022/08/29 03:56:25;;;;;;;4.38;3.97;;;12.80;99.90;;;;;;4861109;29;20759;-90
2022/08/29 03:58:53;;;;;;;8.35;4.10;;;12.90;99.90;;;;;;4846075;29;20062;-90
2022/08/29 04:01:27;;;;;;;3.42;3.13;;;12.90;99.90;;;;;;4845453;29;20048;-86
2022/08/29 04:03:56;;;;;;;3.65;3.30;;;13.00;99.90;;;;;;4830528;29;20034;-91
2022/08/29 04:06:27;;;;;;;4.07;3.67;;;12.90;99.90;;;;;;4846738;29;20099;-90
2022/08/29 04:08:55;;;;;;;4.63;4.20;;;13.00;99.90;;;;;;4845146;29;20068;-90
2022/08/29 04:11:24;;;;;;;19.35;6.47;;;13.10;99.90;;;;;;4861067;29;20046;-90
2022/08/29 04:14:02;;;;;;;11.85;5.53;;;13.00;99.90;;;;;;4846031;29;20072;-89
2022/08/29 04:16:30;;;;;;;4.65;3.58;;;12.90;99.90;;;;;;4845477;29;20427;-90
2022/08/29 04:18:58;;;;;;;7.45;6.18;;;13.00;99.90;;;;;;4861513;29;20060;-90
2022/08/29 04:21:26;;;;;;;4.93;4.53;;;13.00;99.90;;;;;;4860788;29;20049;-91
2022/08/29 04:23:55;;;;;;;7.38;6.00;;;12.90;99.90;;;;;;4860283;29;20089;-91
2022/08/29 04:26:23;;;;;;;4.53;4.13;;;12.90;99.90;;;;;;4861029;29;20053;-90
2022/08/29 04:29:05;;;;;;;4.97;4.07;;;12.90;99.90;;;;;;4845440;29;20060;-90
2022/08/29 04:31:35;;;;;;;5.28;2.83;;;12.80;99.90;;;;;;4845425;29;20400;-91
2022/08/29 04:34:05;;;;;;;28.92;8.10;;;12.90;99.90;;;;;;4845520;29;20058;-90
2022/08/29 04:36:34;;;;;;;22.20;4.57;;;12.60;99.90;;;;;;4844298;29;20052;-90
2022/08/29 04:39:04;;;;;;;5.20;3.45;;;12.50;99.90;;;;;;4845003;29;20373;-91
2022/08/29 04:41:33;;;;;;;11.25;6.72;;;12.50;99.90;;;;;;4845452;29;20507;-91
2022/08/29 04:44:02;;;;;;;4.72;3.60;;;12.50;99.90;;;;;;4845365;29;20042;-90
2022/08/29 04:46:31;;;;;;;3.72;3.42;;;12.60;99.90;;;;;;4860954;29;20053;-92
2022/08/29 04:48:59;;;;;;;3.70;3.40;;;12.60;99.90;;;;;;4845032;29;20053;-90
2022/08/29 04:51:33;;;;;;;7.35;4.53;;;12.70;99.90;;;;;;4844759;29;20416;-91
2022/08/29 04:54:02;;;;;;;31.47;8.17;;;12.70;99.90;;;;;;4829801;29;20519;-90
2022/08/29 04:56:30;;;;;;;11.80;5.85;;;12.80;99.90;;;;;;4844194;29;20053;-90
2022/08/29 04:58:58;;;;;;;19.20;5.35;;;12.80;99.90;;;;;;4845220;29;20057;-91
2022/08/29 05:01:26;;;;;;;44.53;10.50;;;12.70;99.90;;;;;;4844816;29;20526;-91
2022/08/29 05:03:55;;;;;;;6.25;4.25;;;12.70;99.90;;;;;;4844803;29;20073;-90
2022/08/29 05:06:23;;;;;;;39.13;9.10;;;12.50;99.90;;;;;;4845342;29;20049;-89
2022/08/29 05:08:52;;;;;;;89.15;10.85;;;12.60;99.90;;;;;;4859245;29;20057;-90
2022/08/29 05:11:28;;;;;;;9.60;3.97;;;12.60;99.90;;;;;;4844399;29;20076;-91
2022/08/29 05:14:03;;;;;;;12.40;3.58;;;12.60;99.90;;;;;;4845498;29;20077;-91
2022/08/29 05:16:36;;;;;;;14.82;7.57;;;12.60;99.90;;;;;;4844556;29;20049;-90
2022/08/29 05:19:11;;;;;;;14.25;6.28;;;12.70;99.90;;;;;;4835921;29;20419;-91
2022/08/29 05:21:46;;;;;;;8.05;4.65;;;12.80;99.90;;;;;;4862802;29;20044;-91
2022/08/29 05:24:16;;;;;;;19.88;6.88;;;12.90;99.90;;;;;;4846781;29;20049;-91
2022/08/29 05:26:47;;;;;;;4.03;3.70;;;12.90;99.90;;;;;;4847810;29;20510;-91
2022/08/29 05:29:30;;;;;;;3.38;3.13;;;12.90;99.90;;;;;;4846681;29;20053;-89
2022/08/29 05:31:57;;;;;;;4.05;3.75;;;12.90;99.90;;;;;;4863016;29;20049;-90
2022/08/29 05:34:25;;;;;;;4.93;3.40;;;12.80;99.90;;;;;;4847764;29;20065;-90
2022/08/29 05:37:05;;;;;;;5.20;4.13;;;12.80;99.90;;;;;;4861997;29;20045;-90
2022/08/29 05:39:33;;;;;;;;;;;12.80;99.90;;;;;;4847097;29;20064;-89
2022/08/29 05:42:12;;;;;;;3.55;3.30;;;12.90;99.90;;;;;;4862910;29;19924;-86
2022/08/29 05:45:33;;;;;;;3.53;3.22;;;12.90;99.90;;;;;;4823726;29;20066;-89
2022/08/29 05:48:06;;;;;;;13.38;4.28;;;13.00;99.90;;;;;;4824514;29;20050;-90
2022/08/29 05:50:40;;;;;;;3.67;3.38;;;13.10;99.90;;;;;;4794709;29;20516;-89
2022/08/29 05:53:10;;;;;;;3.35;3.05;;;13.10;99.90;;;;;;4791492;29;20077;-89
2022/08/29 05:55:42;;;;;;;3.70;3.40;;;13.20;99.90;;;;;;4785324;29;20053;-89
2022/08/29 05:58:11;;;;;;;3.78;3.47;;;13.20;99.90;;;;;;4829464;29;20050;-90
2022/08/29 06:00:40;;;;;;;4.18;3.78;;;13.20;99.90;;;;;;4828648;29;20037;-88
2022/08/29 06:03:09;;;;;;;3.20;3.00;;;13.30;99.90;;;;;;4829423;29;20053;-90
2022/08/29 06:05:38;;;;;;;3.47;3.17;;;13.40;99.90;;;;;;4828790;29;20065;-90
2022/08/29 06:08:07;;;;;;;3.17;2.97;;;13.40;99.90;;;;;;4843455;29;20041;-89
2022/08/29 06:10:39;;;;;;;3.42;3.13;;;13.60;99.90;;;;;;4829030;29;20053;-89
2022/08/29 06:13:12;;;;;;;4.45;4.05;;;13.70;99.90;;;;;;4836129;29;20053;-89
2022/08/29 06:15:44;;;;;;;5.32;3.40;;;13.80;99.90;;;;;;4832003;29;20056;-89
2022/08/29 06:18:12;;;;;;;3.72;3.42;;;13.90;99.90;;;;;;4847198;29;20640;-90
2022/08/29 06:20:40;;;;;;;5.60;5.15;;;14.00;99.90;;;;;;4847014;29;20057;-89
2022/08/29 06:23:08;;;;;;;3.72;3.42;;;14.20;99.90;;;;;;4832826;29;20060;-90
2022/08/29 06:25:36;;;;;;;4.38;4.07;;;14.50;99.90;;;;;;4832876;29;20048;-90
2022/08/29 06:28:07;;;;;;;4.97;4.53;;;14.60;99.90;;;;;;4832019;29;20049;-90
2022/08/29 06:30:35;;;;;;;4.07;3.70;;;14.80;99.90;;;;;;4848709;29;20053;-91
2022/08/29 06:33:02;;;;;;;4.07;3.67;;;15.00;99.90;;;;;;4848605;29;20053;-91
2022/08/29 06:35:30;;;;;;;4.40;3.70;;;15.10;99.90;;;;;;4863416;29;20068;-90
2022/08/29 06:37:58;;;;;;;4.45;4.05;;;15.20;99.90;;;;;;4847693;29;20475;-90
2022/08/29 06:40:26;;;;;;;4.53;3.88;;;15.30;99.90;;;;;;4828623;29;20054;-90
2022/08/29 06:42:54;;;;;;;4.65;4.25;;;15.50;99.90;;;;;;4844291;29;20476;-90
2022/08/29 06:45:21;;;;;;;4.38;3.97;;;15.80;99.90;;;;;;4843490;29;20057;-89
2022/08/29 06:47:49;;;;;;;13.00;5.32;;;16.10;99.90;;;;;;4860434;29;20037;-88
2022/08/29 06:50:17;;;;;;;5.55;4.93;;;16.30;99.90;;;;;;4847144;29;20049;-89
2022/08/29 06:52:45;;;;;;;4.63;4.18;;;16.50;99.90;;;;;;4861863;29;20065;-89
2022/08/29 06:55:13;;;;;;;3.83;3.53;;;16.70;99.90;;;;;;4832315;29;20049;-89
2022/08/29 06:57:44;;;;;;;4.50;4.10;;;16.70;99.90;;;;;;4831571;29;20045;-90
2022/08/29 07:00:14;;;;;;;5.68;4.85;;;16.70;99.90;;;;;;4846888;29;20061;-89
2022/08/29 07:02:50;;;;;;;4.90;4.03;;;16.70;99.90;;;;;;4847302;29;20052;-89
2022/08/29 07:05:22;;;;;;;4.82;4.30;;;16.90;99.90;;;;;;4861697;29;20042;-89
2022/08/29 07:07:50;;;;;;;5.47;4.45;;;17.00;99.90;;;;;;4863087;29;20042;-89
2022/08/29 07:10:18;;;;;;;4.18;3.67;;;17.00;99.90;;;;;;4862619;29;20053;-89
2022/08/29 07:12:51;;;;;;;4.97;3.90;;;17.10;99.90;;;;;;4846710;29;20054;-88
2022/08/29 07:15:20;;;;;;;4.60;3.92;;;17.10;99.90;;;;;;4861738;29;20823;-87
2022/08/29 07:17:48;;;;;;;4.32;3.50;;;17.20;99.90;;;;;;4846934;29;20080;-88
2022/08/29 07:20:17;;;;;;;5.05;4.45;;;17.20;99.90;;;;;;4846728;29;20052;-87
2022/08/29 07:22:49;;;;;;;7.03;4.60;;;17.20;99.90;;;;;;4846721;29;20049;-87
2022/08/29 07:25:19;;;;;;;4.07;3.63;;;17.40;99.90;;;;;;4862857;29;20046;-87
2022/08/29 07:27:48;;;;;;;6.82;4.50;;;17.40;99.90;;;;;;4831010;29;20041;-86
2022/08/29 07:30:20;;;;;;;7.22;3.58;;;17.70;99.90;;;;;;4861816;29;20051;-86
2022/08/29 07:32:48;;;;;;;4.72;3.92;;;17.80;99.90;;;;;;4845850;29;20064;-86
2022/08/29 07:35:17;;;;;;;4.13;3.80;;;17.80;99.90;;;;;;4846318;29;20061;-85
2022/08/29 07:37:58;;;;;;;5.25;4.10;;;18.00;99.90;;;;;;4829141;29;20061;-86
2022/08/29 07:40:26;;;;;;;4.40;3.92;;;18.00;99.90;;;;;;4861467;29;20052;-85
2022/08/29 07:42:54;;;;;;;4.00;3.40;;;18.00;99.90;;;;;;4846442;29;20056;-85
2022/08/29 07:45:22;;;;;;;4.47;4.07;;;18.00;99.90;;;;;;4862537;29;20049;-85
2022/08/29 07:47:49;;;;;;;4.18;3.78;;;18.10;99.90;;;;;;4861270;29;20826;-85
2022/08/29 07:50:17;;;;;;;4.25;3.83;;;18.20;99.90;;;;;;4877345;29;20487;-85
2022/08/29 07:52:47;;;;;;;4.85;3.97;;;18.20;99.90;;;;;;4869963;29;20064;-85
2022/08/29 07:55:15;;;;;;;10.38;5.25;;;18.10;99.90;;;;;;4867501;29;20045;-85
2022/08/29 07:57:45;;;;;;;7.18;4.15;;;18.40;99.90;;;;;;4845533;29;20041;-85
2022/08/29 08:00:13;;;;;;;8.43;4.30;;;18.50;99.90;;;;;;4844716;29;20045;-85
2022/08/29 08:02:40;;;;;;;7.15;5.13;;;18.50;99.90;;;;;;4856474;29;20075;-86
2022/08/29 08:05:08;;;;;;;4.95;4.45;;;18.70;99.90;;;;;;4888159;29;20513;-85
2022/08/29 08:07:36;;;;;;;6.80;5.47;;;18.80;99.90;;;;;;4881807;29;20056;-84
2022/08/29 08:10:07;;;;;;;12.77;5.72;;;18.80;99.90;;;;;;4862152;29;20056;-86
2022/08/29 08:12:35;;;;;;;6.65;5.28;;;18.90;99.90;;;;;;4878864;29;20044;-84
2022/08/29 08:15:03;;;;;;;6.65;5.25;;;19.00;99.90;;;;;;4851229;29;20045;-84
2022/08/29 08:17:32;;;;;;;9.40;7.15;;;19.10;99.90;;;;;;4847613;29;20045;-89
2022/08/29 08:20:00;;;;;;;7.35;6.47;;;19.20;99.90;;;;;;4848322;29;20487;-88
2022/08/29 08:22:28;;;;;;;15.27;8.93;;;19.20;99.90;;;;;;4852914;29;20490;-87
2022/08/29 08:24:56;;;;;;;7.72;6.25;;;19.30;99.90;;;;;;4865704;29;20063;-89
2022/08/29 08:27:25;;;;;;;8.68;7.78;;;19.30;99.90;;;;;;4881676;29;20052;-89
2022/08/29 08:29:53;;;;;;;10.65;7.68;;;19.40;99.90;;;;;;4867435;29;20057;-90
2022/08/29 08:32:29;;;;;;;7.38;5.50;;;19.50;99.90;;;;;;4881929;29;20045;-89
2022/08/29 08:35:00;;;;;;;9.32;6.70;;;19.40;99.90;;;;;;4883210;29;20407;-93
2022/08/29 08:37:28;;;;;;;8.20;6.60;;;19.50;99.90;;;;;;4867565;29;20049;-92
2022/08/29 08:39:57;;;;;;;11.27;6.50;;;19.70;99.90;;;;;;4867146;29;20041;-91
2022/08/29 08:43:42;;;;;;;11.05;7.95;;;19.60;99.90;;;;;;4831353;29;20049;-91
2022/08/29 08:46:10;;;;;;;8.98;6.72;;;19.40;99.90;;;;;;4845232;29;20042;-91
2022/08/29 08:48:39;;;;;;;6.50;5.38;;;19.40;99.90;;;;;;4849088;29;20123;-92
2022/08/29 08:51:22;;;;;;;8.90;6.50;;;19.60;99.90;;;;;;4849412;29;20075;-90
2022/08/29 08:53:55;;;;;;;11.32;6.28;;;19.70;99.90;;;;;;4854100;29;20061;-90
2022/08/29 08:56:53;;;;;;;13.90;7.40;;;19.90;99.90;;;;;;4860690;29;20057;-91
2022/08/29 08:59:44;;;;;;;9.57;6.22;;;19.90;99.90;;;;;;4841510;29;20522;-91
2022/08/29 09:02:30;;;;;;;9.95;6.70;;;19.70;99.90;;;;;;4848092;29;20060;-88
2022/08/29 09:05:26;;;;;;;8.85;6.90;;;19.80;99.90;;;;;;4847375;29;20383;-90
2022/08/29 09:09:26;;;;;;;10.80;7.32;;;19.80;99.90;;;;;;4822199;29;20147;-91
2022/08/29 09:12:44;;;;;;;11.80;8.20;;;19.80;99.90;;;;;;4861397;29;20052;-92
2022/08/29 09:15:21;;;;;;;8.25;5.40;;;20.00;99.90;;;;;;4863983;29;20049;-89
2022/08/29 09:18:02;;;;;;;8.45;7.03;;;20.10;99.90;;;;;;4847830;29;20415;-90
2022/08/29 09:20:32;;;;;;;;;;;20.20;99.90;;;;;;4848105;29;20399;-92
2022/08/29 09:23:18;;;;;;;6.82;5.35;;;20.20;99.90;;;;;;4848226;29;19934;-91
2022/08/29 09:25:46;;;;;;;9.43;5.95;;;20.30;99.90;;;;;;4847565;29;20053;-90
2022/08/29 09:28:15;;;;;;;9.63;6.43;;;20.40;99.90;;;;;;4877935;29;20068;-90
2022/08/29 09:31:04;;;;;;;8.02;5.85;;;20.40;99.90;;;;;;4878518;29;20049;-90
2022/08/29 09:33:47;;;;;;;9.48;6.53;;;20.40;99.90;;;;;;4847255;29;20072;-89
2022/08/29 09:36:34;;;;;;;12.55;7.22;;;20.30;99.90;;;;;;4843911;29;20428;-90
2022/08/29 09:39:16;;;;;;;7.68;6.20;;;20.40;99.90;;;;;;4829244;29;20061;-88
2022/08/29 09:42:18;;;;;;;6.70;5.32;;;20.40;99.90;;;;;;4869174;29;20044;-88
2022/08/29 09:45:48;;;;;;;6.65;4.95;;;20.40;99.90;;;;;;4783030;29;20496;-89
2022/08/29 09:48:53;;;;;;;9.98;6.75;;;20.50;99.90;;;;;;4779446;29;20584;-89
2022/08/29 09:59:39;;;;;;;;;;;20.60;99.90;;;;;;4827030;29;20052;-87
2022/08/29 10:02:37;;;;;;;11.07;7.40;;;20.70;99.90;;;;;;4814626;29;19931;-87
2022/08/29 10:05:41;;;;;;;6.90;6.28;;;21.00;99.90;;;;;;4812567;29;20068;-88
2022/08/29 10:09:06;;;;;;;8.52;5.57;;;21.10;99.90;;;;;;4818726;29;20053;-88
2022/08/29 10:12:59;;;;;;;7.15;5.70;;;21.20;99.90;;;;;;4780207;29;20051;-88
2022/08/29 10:15:49;;;;;;;6.80;5.03;;;21.60;99.90;;;;;;4787341;29;20171;-88
2022/08/29 10:18:42;;;;;;;8.35;5.82;;;21.60;99.90;;;;;;4802245;29;20418;-89
2022/08/29 10:21:17;;;;;;;6.32;5.18;;;21.70;99.90;;;;;;4788296;29;20047;-88
2022/08/29 10:24:23;;;;;;;6.18;5.55;;;21.80;99.90;;;;;;4801024;29;20149;-89
2022/08/29 10:27:29;;;;;;;6.07;4.80;;;22.00;99.90;;;;;;4832066;29;20536;-88
2022/08/29 10:29:57;;;;;;;8.07;5.38;;;22.10;99.90;;;;;;4849936;29;20056;-84
2022/08/29 10:32:47;;;;;;;5.93;5.43;;;22.10;99.90;;;;;;4865047;29;20053;-83
2022/08/29 10:35:39;;;;;;;6.07;4.78;;;22.20;99.90;;;;;;4866029;29;20411;-84
2022/08/29 10:38:26;;;;;;;7.43;5.82;;;22.20;99.90;;;;;;4851228;29;20056;-84
2022/08/29 10:41:20;;;;;;;4.70;3.90;;;22.20;99.90;;;;;;4873356;29;20038;-85
2022/08/29 10:43:57;;;;;;;5.72;5.05;;;22.10;99.90;;;;;;4865136;29;20057;-84
2022/08/29 10:46:44;;;;;;;9.20;5.82;;;22.30;99.90;;;;;;4850333;29;20057;-84
2022/08/29 10:49:47;;;;;;;8.20;4.72;;;22.40;99.90;;;;;;4879774;29;20123;-84
2022/08/29 10:52:24;;;;;;;6.35;4.60;;;22.40;99.90;;;;;;4896049;29;20491;-86
2022/08/29 10:55:12;;;;;;;7.00;4.68;;;22.40;99.90;;;;;;4881124;29;20049;-84
2022/08/29 10:58:04;;;;;;;10.95;6.00;;;22.60;99.90;;;;;;4865157;29;20049;-84
2022/08/29 11:00:54;;;;;;;6.00;5.22;;;22.60;99.90;;;;;;4880262;29;20060;-84
2022/08/29 11:03:38;;;;;;;7.30;4.32;;;22.60;99.90;;;;;;4864797;29;20057;-85
2022/08/29 11:06:15;;;;;;;7.80;4.43;;;22.70;99.90;;;;;;4850326;29;20057;-84
2022/08/29 11:08:55;;;;;;;6.05;5.00;;;22.80;99.90;;;;;;4864675;29;20049;-84
2022/08/29 11:11:24;;;;;;;5.38;3.95;;;22.80;99.90;;;;;;4880355;29;20045;-83
2022/08/29 11:14:01;;;;;;;4.22;3.42;;;22.90;99.90;;;;;;4896366;29;20768;-83
2022/08/29 11:16:42;;;;;;;7.78;5.32;;;22.90;99.90;;;;;;4883607;29;20052;-83
2022/08/29 11:19:38;;;;;;;4.80;4.32;;;22.80;99.90;;;;;;4868633;29;20068;-83
2022/08/29 11:22:26;;;;;;;4.68;3.78;;;22.90;99.90;;;;;;4859407;29;20519;-83
2022/08/29 11:25:08;;;;;;;7.32;4.85;;;22.80;99.90;;;;;;4861392;29;20049;-83
2022/08/29 11:28:02;;;;;;;6.68;5.65;;;22.80;99.90;;;;;;4846065;29;20068;-84
2022/08/29 11:30:47;;;;;;;6.85;4.70;;;23.00;99.90;;;;;;4878909;29;20056;-84
2022/08/29 11:33:21;;;;;;;6.88;4.50;;;23.10;99.90;;;;;;4879581;29;20045;-86
2022/08/29 11:36:25;;;;;;;7.22;4.63;;;23.20;99.90;;;;;;4879478;29;20072;-85
2022/08/29 11:38:53;;;;;;;4.60;4.20;;;23.10;99.90;;;;;;4881157;29;20060;-85
2022/08/29 11:41:25;;;;;;;6.25;5.10;;;22.70;99.90;;;;;;4864578;29;20045;-85
2022/08/29 11:44:06;;;;;;;7.03;5.28;;;22.50;99.90;;;;;;4879815;29;20049;-85
2022/08/29 11:46:42;;;;;;;7.15;4.95;;;22.40;99.90;;;;;;4880033;29;20056;-86
2022/08/29 11:49:29;;;;;;;6.40;5.68;;;22.20;99.90;;;;;;4879362;29;20045;-87
2022/08/29 11:52:09;;;;;;;8.98;5.63;;;22.10;99.90;;;;;;4870411;29;20053;-85
2022/08/29 11:54:38;;;;;;;7.10;5.18;;;22.10;99.90;;;;;;4861226;29;20049;-85
2022/08/29 11:57:09;;;;;;;6.15;5.03;;;22.10;99.90;;;;;;4862129;29;20049;-84
2022/08/29 11:59:49;;;;;;;6.70;5.47;;;22.10;99.90;;;;;;4862138;29;20057;-85
2022/08/29 12:02:53;;;;;;;5.10;3.72;;;22.10;99.90;;;;;;4861271;29;20757;-86
2022/08/29 12:05:27;;;;;;;6.03;4.70;;;21.90;99.90;;;;;;4858891;29;20045;-85
2022/08/29 12:08:11;;;;;;;4.95;4.47;;;21.70;99.90;;;;;;4830206;29;20045;-84
2022/08/29 12:11:00;;;;;;;5.45;4.90;;;22.00;99.90;;;;;;4848602;29;20392;-84
2022/08/29 12:13:46;;;;;;;9.02;5.35;;;22.00;99.90;;;;;;4860815;29;20377;-82
2022/08/29 12:16:22;;;;;;;10.32;5.03;;;22.00;99.90;;;;;;5470695;23;20701;-84
2022/08/29 12:18:52;;;;;;;7.22;5.18;;;22.20;99.90;;;;;;4829382;29;20061;-85
2022/08/29 12:21:39;;;;;;;5.40;4.30;;;22.30;99.90;;;;;;4829916;29;20057;-85
2022/08/29 12:24:43;;;;;;;4.80;4.35;;;22.40;99.90;;;;;;4860247;29;20049;-85
2022/08/29 12:27:55;;;;;;;8.32;4.13;;;22.50;99.90;;;;;;4845296;29;20049;-84
2022/08/29 12:30:23;;;;;;;4.30;3.90;;;22.50;99.90;;;;;;4845145;29;20061;-84
2022/08/29 12:32:55;;;;;;;8.43;5.05;;;22.70;99.90;;;;;;4858139;29;20496;-81
2022/08/29 12:36:00;;;;;;;6.07;4.35;;;22.80;99.90;;;;;;4860953;29;20056;-82
2022/08/29 12:38:43;;;;;;;6.07;5.13;;;23.00;99.90;;;;;;4830040;29;20060;-82
2022/08/29 12:41:21;;;;;;;6.45;4.65;;;23.20;99.90;;;;;;4844674;29;20042;-82
2022/08/29 12:44:00;;;;;;;6.65;4.05;;;23.30;99.90;;;;;;4844188;29;20053;-82
2022/08/29 12:46:37;;;;;;;7.40;4.65;;;23.20;99.90;;;;;;4845390;29;20066;-82
2022/08/29 12:49:20;;;;;;;5.85;4.30;;;23.20;99.90;;;;;;4861158;29;20050;-84
2022/08/29 12:52:00;;;;;;;3.72;3.42;;;23.20;99.90;;;;;;4844600;29;20072;-85
2022/08/29 12:54:40;;;;;;;4.25;3.85;;;23.20;99.90;;;;;;4861352;29;20068;-83
2022/08/29 12:57:30;;;;;;;7.35;4.35;;;23.20;99.90;;;;;;4859849;29;20453;-84
2022/08/29 13:00:00;;;;;;;5.93;5.28;;;23.00;99.90;;;;;;4859668;29;20042;-85
2022/08/29 13:02:33;;;;;;;6.75;4.55;;;22.60;99.90;;;;;;4859807;29;20486;-84
2022/08/29 13:05:16;;;;;;;5.30;4.50;;;22.40;99.90;;;;;;4853627;29;20045;-84
2022/08/29 13:07:57;;;;;;;5.47;3.92;;;22.20;99.90;;;;;;4851737;29;20055;-85
2022/08/29 13:10:26;;;;;;;9.70;6.40;;;22.00;99.90;;;;;;4863633;29;20052;-85
2022/08/29 13:13:14;;;;;;;6.50;4.45;;;21.80;99.90;;;;;;4864030;29;20500;-86
2022/08/29 13:15:42;;;;;;;5.18;4.60;;;21.70;99.90;;;;;;4842165;29;20056;-85
2022/08/29 13:18:15;;;;;;;5.85;4.72;;;21.70;99.90;;;;;;4858090;29;20065;-85
2022/08/29 13:21:16;;;;;;;7.72;4.53;;;21.70;99.90;;;;;;4825915;29;20061;-86
2022/08/29 13:23:45;;;;;;;7.15;5.18;;;21.80;99.90;;;;;;4825665;29;20052;-85
2022/08/29 13:26:13;;;;;;;8.02;5.28;;;21.80;99.90;;;;;;4826361;29;20062;-86
2022/08/29 13:28:54;;;;;;;5.90;4.88;;;22.10;99.90;;;;;;4825640;29;20066;-84
2022/08/29 13:31:30;;;;;;;4.13;3.83;;;22.30;99.90;;;;;;4842155;29;20069;-83
2022/08/29 13:34:03;;;;;;;5.65;4.35;;;22.60;99.90;;;;;;4840928;29;20485;-83
2022/08/29 13:36:59;;;;;;;5.88;5.25;;;22.80;99.90;;;;;;4855307;29;20049;-83
2022/08/29 13:39:38;;;;;;;10.82;4.65;;;22.90;99.90;;;;;;4843317;29;20074;-83
2022/08/29 13:42:19;;;;;;;5.47;3.97;;;23.20;99.90;;;;;;4859710;29;20052;-82
2022/08/29 13:45:06;;;;;;;8.32;5.80;;;23.40;99.90;;;;;;4860168;29;20064;-82
2022/08/29 13:48:12;;;;;;;6.78;4.63;;;23.60;99.90;;;;;;4860119;29;20054;-80
2022/08/29 13:50:40;;;;;;;6.45;4.93;;;23.50;99.90;;;;;;4850211;29;20053;-83
2022/08/29 13:53:08;;;;;;;5.78;4.88;;;23.50;99.90;;;;;;4860143;29;20060;-84
2022/08/29 13:55:40;;;;;;;5.32;4.25;;;23.40;99.90;;;;;;4843697;29;20042;-84
2022/08/29 13:58:10;;;;;;;4.73;4.30;;;23.10;99.90;;;;;;4837387;29;20081;-82
2022/08/29 14:00:38;;;;;;;10.65;4.18;;;22.80;99.90;;;;;;4854602;29;20061;-81
2022/08/29 14:03:07;;;;;;;8.27;4.22;;;22.50;99.90;;;;;;4828750;29;20500;-83
2022/08/29 14:05:39;;;;;;;4.50;4.00;;;22.40;99.90;;;;;;4856572;29;20049;-84
2022/08/29 14:08:08;;;;;;;4.88;4.43;;;22.20;99.90;;;;;;4824701;29;20443;-83
2022/08/29 14:10:36;;;;;;;5.10;4.30;;;22.10;99.90;;;;;;4842124;29;20050;-82
2022/08/29 14:13:05;;;;;;;7.70;4.43;;;22.10;99.90;;;;;;4840561;29;20401;-83
2022/08/29 14:15:33;;;;;;;5.55;4.15;;;22.00;99.90;;;;;;4849233;29;20046;-81
2022/08/29 14:18:02;;;;;;;5.53;4.43;;;21.90;99.90;;;;;;4828323;29;20065;-82
2022/08/29 14:20:30;;;;;;;8.68;4.70;;;22.10;99.90;;;;;;4829892;29;20049;-82
2022/08/29 14:22:58;;;;;;;8.68;4.32;;;22.40;99.90;;;;;;4858993;29;20053;-82
2022/08/29 14:25:25;;;;;;;6.57;4.15;;;22.50;99.90;;;;;;4851709;29;20057;-83
2022/08/29 14:27:53;;;;;;;5.07;3.90;;;22.70;99.90;;;;;;4825023;29;20050;-84
2022/08/29 14:30:23;;;;;;;5.10;4.47;;;22.90;99.90;;;;;;4825489;29;20058;-85
2022/08/29 14:32:51;;;;;;;4.65;4.25;;;23.10;99.90;;;;;;4825204;29;20057;-83
2022/08/29 14:35:20;;;;;;;5.68;5.03;;;23.10;99.90;;;;;;4841593;29;20054;-84
2022/08/29 14:38:00;;;;;;;7.50;4.78;;;23.20;99.90;;;;;;4849601;29;20050;-84
2022/08/29 14:40:29;;;;;;;5.13;4.50;;;23.20;99.90;;;;;;4850193;29;20056;-82
2022/08/29 14:43:04;;;;;;;5.32;4.35;;;23.30;99.90;;;;;;4850065;29;20046;-81
2022/08/29 14:45:32;;;;;;;8.25;4.70;;;23.30;99.90;;;;;;4843041;29;20058;-82
2022/08/29 14:48:00;;;;;;;5.32;4.88;;;23.30;99.90;;;;;;4859627;29;20049;-83
2022/08/29 14:50:28;;;;;;;4.32;3.92;;;23.40;99.90;;;;;;4828310;29;20053;-83
2022/08/29 14:52:56;;;;;;;4.65;4.25;;;23.20;99.90;;;;;;4855646;29;20046;-82
2022/08/29 14:55:24;;;;;;;8.85;4.70;;;22.90;99.90;;;;;;4859270;29;20045;-82
2022/08/29 14:57:52;;;;;;;7.78;4.38;;;22.70;99.90;;;;;;4860070;29;20044;-81
2022/08/29 15:00:23;;;;;;;5.93;4.32;;;22.50;99.90;;;;;;4859161;29;20044;-82
2022/08/29 15:02:51;;;;;;;7.57;3.90;;;22.60;99.90;;;;;;4858264;29;20053;-83
2022/08/29 15:05:19;;;;;;;6.03;4.75;;;22.70;99.90;;;;;;4849175;29;20082;-81
2022/08/29 15:07:47;;;;;;;8.88;4.38;;;22.60;99.90;;;;;;4845196;29;20045;-81
2022/08/29 15:10:18;;;;;;;5.57;4.57;;;22.70;99.90;;;;;;4863009;29;20057;-82
2022/08/29 15:12:46;;;;;;;4.35;3.80;;;22.90;99.90;;;;;;4829688;29;20045;-81
2022/08/29 15:15:13;;;;;;;4.97;4.47;;;23.10;99.90;;;;;;4853087;29;20057;-80
2022/08/29 15:17:42;;;;;;;6.50;5.85;;;23.40;99.90;;;;;;4845490;29;20062;-81
2022/08/29 15:20:12;;;;;;;3.90;3.55;;;23.50;99.90;;;;;;4849608;29;20119;-82
2022/08/29 15:23:00;;;;;;;4.18;3.88;;;23.60;99.90;;;;;;4860096;29;20056;-80
2022/08/29 15:25:28;;;;;;;5.03;4.53;;;23.60;99.90;;;;;;4833734;29;20045;-80
2022/08/29 15:27:56;;;;;;;4.55;4.15;;;23.60;99.90;;;;;;4835767;29;20050;-80
2022/08/29 15:30:24;;;;;;;5.13;4.05;;;23.70;99.90;;;;;;4845237;29;20049;-80
2022/08/29 15:32:52;;;;;;;4.45;4.05;;;23.60;99.90;;;;;;4860901;29;20401;-81
2022/08/29 15:35:20;;;;;;;5.00;4.50;;;23.50;99.90;;;;;;4845788;29;20050;-84
2022/08/29 15:37:48;;;;;;;4.40;3.92;;;23.50;99.90;;;;;;4862808;29;20045;-82
2022/08/29 15:40:16;;;;;;;4.50;4.00;;;23.40;99.90;;;;;;4839546;29;20045;-81
2022/08/29 15:42:44;;;;;;;5.90;5.00;;;23.40;99.90;;;;;;4858158;29;20050;-83
2022/08/29 15:45:12;;;;;;;5.13;4.63;;;23.50;99.90;;;;;;4880073;29;20049;-81
2022/08/29 15:47:40;;;;;;;5.63;4.35;;;23.50;99.90;;;;;;4879672;29;20053;-83
2022/08/29 15:50:13;;;;;;;7.38;4.68;;;23.50;99.90;;;;;;4849013;29;20097;-83
2022/08/29 15:52:41;;;;;;;5.35;4.05;;;23.40;99.90;;;;;;4861404;29;20448;-81
2022/08/29 15:55:10;;;;;;;4.50;4.10;;;23.30;99.90;;;;;;4838928;29;20052;-83